sensor_id;sensor_type;location;lat;lon;timestamp;P1;durP1;ratioP1;P2;durP2;ratioP2
46455;SDS011;64052;47.466;9.094;2022-10-04T00:01:08;4.00;;;3.40;;
46455;SDS011;64052;47.466;9.094;2022-10-04T00:06:14;4.13;;;3.15;;
46455;SDS011;64052;47.466;9.094;2022-10-04T00:11:21;3.15;;;2.67;;
46455;SDS011;64052;47.466;9.094;2022-10-04T00:16:30;2.20;;;1.98;;
46455;SDS011;64052;47.466;9.094;2022-10-04T00:37:14;2.35;;;2.15;;
46455;SDS011;64052;47.466;9.094;2022-10-04T00:42:21;5.47;;;4.40;;
46455;SDS011;64052;47.466;9.094;2022-10-04T00:47:26;4.53;;;3.70;;
46455;SDS011;64052;47.466;9.094;2022-10-04T00:52:34;5.15;;;3.83;;
46455;SDS011;64052;47.466;9.094;2022-10-04T00:57:42;5.50;;;4.22;;
46455;SDS011;64052;47.466;9.094;2022-10-04T01:02:50;7.05;;;3.35;;
46455;SDS011;64052;47.466;9.094;2022-10-04T01:07:57;4.88;;;3.95;;
46455;SDS011;64052;47.466;9.094;2022-10-04T01:13:08;4.20;;;3.65;;
46455;SDS011;64052;47.466;9.094;2022-10-04T01:18:15;5.20;;;3.65;;
46455;SDS011;64052;47.466;9.094;2022-10-04T01:33:39;5.35;;;3.50;;
46455;SDS011;64052;47.466;9.094;2022-10-04T01:38:40;6.28;;;5.00;;
46455;SDS011;64052;47.466;9.094;2022-10-04T01:43:42;4.53;;;4.13;;
46455;SDS011;64052;47.466;9.094;2022-10-04T01:48:50;4.60;;;3.78;;
46455;SDS011;64052;47.466;9.094;2022-10-04T01:59:03;4.40;;;3.80;;
46455;SDS011;64052;47.466;9.094;2022-10-04T02:04:08;6.93;;;4.57;;
46455;SDS011;64052;47.466;9.094;2022-10-04T02:09:22;4.68;;;3.95;;
46455;SDS011;64052;47.466;9.094;2022-10-04T02:14:35;4.68;;;4.03;;
46455;SDS011;64052;47.466;9.094;2022-10-04T02:19:43;6.93;;;5.25;;
46455;SDS011;64052;47.466;9.094;2022-10-04T02:24:46;5.03;;;4.13;;
46455;SDS011;64052;47.466;9.094;2022-10-04T02:29:49;5.55;;;4.25;;
46455;SDS011;64052;47.466;9.094;2022-10-04T02:34:50;5.82;;;4.65;;
46455;SDS011;64052;47.466;9.094;2022-10-04T02:45:49;5.93;;;5.00;;
46455;SDS011;64052;47.466;9.094;2022-10-04T02:50:54;4.75;;;3.88;;
46455;SDS011;64052;47.466;9.094;2022-10-04T02:56:00;7.97;;;5.15;;
46455;SDS011;64052;47.466;9.094;2022-10-04T03:01:02;5.63;;;4.40;;
46455;SDS011;64052;47.466;9.094;2022-10-04T03:06:14;6.18;;;4.75;;
46455;SDS011;64052;47.466;9.094;2022-10-04T03:11:20;6.78;;;4.72;;
46455;SDS011;64052;47.466;9.094;2022-10-04T03:16:24;7.18;;;4.78;;
46455;SDS011;64052;47.466;9.094;2022-10-04T03:21:27;6.63;;;4.57;;
46455;SDS011;64052;47.466;9.094;2022-10-04T03:26:31;7.15;;;4.53;;
46455;SDS011;64052;47.466;9.094;2022-10-04T03:31:39;5.70;;;4.85;;
46455;SDS011;64052;47.466;9.094;2022-10-04T03:36:44;8.05;;;4.90;;
46455;SDS011;64052;47.466;9.094;2022-10-04T03:41:47;7.15;;;5.07;;
46455;SDS011;64052;47.466;9.094;2022-10-04T03:46:49;5.88;;;4.20;;
46455;SDS011;64052;47.466;9.094;2022-10-04T03:51:51;7.28;;;5.38;;
46455;SDS011;64052;47.466;9.094;2022-10-04T03:56:53;9.40;;;6.07;;
46455;SDS011;64052;47.466;9.094;2022-10-04T04:07:37;9.75;;;6.60;;
46455;SDS011;64052;47.466;9.094;2022-10-04T04:12:55;8.55;;;6.80;;
46455;SDS011;64052;47.466;9.094;2022-10-04T04:18:02;5.13;;;4.07;;
46455;SDS011;64052;47.466;9.094;2022-10-04T04:33:29;4.28;;;3.40;;
46455;SDS011;64052;47.466;9.094;2022-10-04T04:38:34;4.55;;;3.38;;
46455;SDS011;64052;47.466;9.094;2022-10-04T04:43:35;5.47;;;3.88;;
46455;SDS011;64052;47.466;9.094;2022-10-04T04:48:44;3.67;;;3.10;;
46455;SDS011;64052;47.466;9.094;2022-10-04T04:53:48;3.65;;;2.95;;
46455;SDS011;64052;47.466;9.094;2022-10-04T05:11:54;3.97;;;3.58;;
46455;SDS011;64052;47.466;9.094;2022-10-04T05:17:02;3.13;;;2.60;;
46455;SDS011;64052;47.466;9.094;2022-10-04T05:22:09;3.38;;;2.63;;
46455;SDS011;64052;47.466;9.094;2022-10-04T05:42:44;5.43;;;3.35;;
46455;SDS011;64052;47.466;9.094;2022-10-04T05:47:47;5.88;;;3.80;;
46455;SDS011;64052;47.466;9.094;2022-10-04T05:52:51;6.50;;;4.15;;
46455;SDS011;64052;47.466;9.094;2022-10-04T06:09:02;5.60;;;4.05;;
46455;SDS011;64052;47.466;9.094;2022-10-04T06:19:54;7.93;;;4.70;;
46455;SDS011;64052;47.466;9.094;2022-10-04T06:25:01;5.00;;;4.07;;
46455;SDS011;64052;47.466;9.094;2022-10-04T06:30:13;3.45;;;3.15;;
46455;SDS011;64052;47.466;9.094;2022-10-04T06:40:58;5.30;;;3.47;;
46455;SDS011;64052;47.466;9.094;2022-10-04T06:46:10;4.55;;;4.05;;
46455;SDS011;64052;47.466;9.094;2022-10-04T07:02:05;7.47;;;5.10;;
46455;SDS011;64052;47.466;9.094;2022-10-04T07:12:18;9.63;;;4.30;;
46455;SDS011;64052;47.466;9.094;2022-10-04T07:17:22;6.70;;;4.65;;
46455;SDS011;64052;47.466;9.094;2022-10-04T07:28:31;4.50;;;3.40;;
46455;SDS011;64052;47.466;9.094;2022-10-04T07:33:45;6.25;;;3.58;;
46455;SDS011;64052;47.466;9.094;2022-10-04T07:38:57;5.93;;;4.90;;
46455;SDS011;64052;47.466;9.094;2022-10-04T07:44:12;9.88;;;5.53;;
46455;SDS011;64052;47.466;9.094;2022-10-04T07:49:19;11.10;;;7.80;;
46455;SDS011;64052;47.466;9.094;2022-10-04T07:54:36;9.60;;;7.88;;
46455;SDS011;64052;47.466;9.094;2022-10-04T08:10:19;12.77;;;7.55;;
46455;SDS011;64052;47.466;9.094;2022-10-04T08:15:37;10.55;;;7.18;;
46455;SDS011;64052;47.466;9.094;2022-10-04T08:20:45;9.15;;;6.65;;
46455;SDS011;64052;47.466;9.094;2022-10-04T08:26:17;7.50;;;6.50;;
46455;SDS011;64052;47.466;9.094;2022-10-04T08:58:43;6.47;;;4.85;;
46455;SDS011;64052;47.466;9.094;2022-10-04T09:20:22;5.53;;;4.38;;
46455;SDS011;64052;47.466;9.094;2022-10-04T09:25:52;7.80;;;5.18;;
46455;SDS011;64052;47.466;9.094;2022-10-04T09:31:06;6.78;;;4.60;;
46455;SDS011;64052;47.466;9.094;2022-10-04T09:52:18;5.30;;;4.25;;
46455;SDS011;64052;47.466;9.094;2022-10-04T09:57:48;7.82;;;5.00;;
46455;SDS011;64052;47.466;9.094;2022-10-04T10:19:14;6.63;;;4.70;;
46455;SDS011;64052;47.466;9.094;2022-10-04T10:30:08;6.93;;;5.90;;
46455;SDS011;64052;47.466;9.094;2022-10-04T10:40:54;7.22;;;5.43;;
46455;SDS011;64052;47.466;9.094;2022-10-04T11:02:14;10.35;;;7.05;;
46455;SDS011;64052;47.466;9.094;2022-10-04T11:07:52;7.47;;;6.53;;
46455;SDS011;64052;47.466;9.094;2022-10-04T11:34:50;8.50;;;6.78;;
46455;SDS011;64052;47.466;9.094;2022-10-04T12:13:17;6.47;;;5.38;;
46455;SDS011;64052;47.466;9.094;2022-10-04T12:45:50;6.75;;;5.70;;
46455;SDS011;64052;47.466;9.094;2022-10-04T12:51:08;7.43;;;5.60;;
46455;SDS011;64052;47.466;9.094;2022-10-04T13:01:35;5.70;;;4.38;;
46455;SDS011;64052;47.466;9.094;2022-10-04T13:17:33;9.33;;;6.40;;
46455;SDS011;64052;47.466;9.094;2022-10-04T13:22:49;6.30;;;5.05;;
46455;SDS011;64052;47.466;9.094;2022-10-04T13:28:11;10.60;;;7.13;;
46455;SDS011;64052;47.466;9.094;2022-10-04T13:33:34;6.13;;;5.40;;
46455;SDS011;64052;47.466;9.094;2022-10-04T13:55:10;7.15;;;6.45;;
46455;SDS011;64052;47.466;9.094;2022-10-04T14:11:37;6.38;;;5.40;;
46455;SDS011;64052;47.466;9.094;2022-10-04T14:27:49;6.65;;;5.40;;
46455;SDS011;64052;47.466;9.094;2022-10-04T14:39:43;5.68;;;5.05;;
46455;SDS011;64052;47.466;9.094;2022-10-04T14:44:54;7.03;;;5.95;;
46455;SDS011;64052;47.466;9.094;2022-10-04T14:50:47;13.88;;;7.50;;
46455;SDS011;64052;47.466;9.094;2022-10-04T14:55:59;6.57;;;5.85;;
46455;SDS011;64052;47.466;9.094;2022-10-04T15:01:25;6.65;;;5.70;;
46455;SDS011;64052;47.466;9.094;2022-10-04T15:06:47;8.15;;;6.57;;
46455;SDS011;64052;47.466;9.094;2022-10-04T15:18:10;6.90;;;5.97;;
46455;SDS011;64052;47.466;9.094;2022-10-04T15:23:36;7.40;;;5.90;;
46455;SDS011;64052;47.466;9.094;2022-10-04T15:44:44;7.20;;;6.30;;
46455;SDS011;64052;47.466;9.094;2022-10-04T15:55:55;7.72;;;6.18;;
46455;SDS011;64052;47.466;9.094;2022-10-04T16:06:38;7.95;;;7.15;;
46455;SDS011;64052;47.466;9.094;2022-10-04T16:12:21;9.23;;;7.53;;
46455;SDS011;64052;47.466;9.094;2022-10-04T16:28:37;9.90;;;7.50;;
46455;SDS011;64052;47.466;9.094;2022-10-04T16:33:50;9.88;;;7.63;;
46455;SDS011;64052;47.466;9.094;2022-10-04T16:38:58;10.07;;;8.25;;
46455;SDS011;64052;47.466;9.094;2022-10-04T16:44:01;8.32;;;7.00;;
46455;SDS011;64052;47.466;9.094;2022-10-04T16:54:33;9.45;;;7.72;;
46455;SDS011;64052;47.466;9.094;2022-10-04T17:05:42;9.15;;;7.28;;
46455;SDS011;64052;47.466;9.094;2022-10-04T17:16:00;10.00;;;8.73;;
46455;SDS011;64052;47.466;9.094;2022-10-04T17:21:24;9.80;;;8.55;;
46455;SDS011;64052;47.466;9.094;2022-10-04T17:26:37;10.73;;;9.18;;
46455;SDS011;64052;47.466;9.094;2022-10-04T17:32:02;10.60;;;8.55;;
46455;SDS011;64052;47.466;9.094;2022-10-04T17:48:07;9.63;;;8.50;;
46455;SDS011;64052;47.466;9.094;2022-10-04T17:53:24;12.18;;;9.50;;
46455;SDS011;64052;47.466;9.094;2022-10-04T17:58:36;11.75;;;10.15;;
46455;SDS011;64052;47.466;9.094;2022-10-04T18:03:46;10.43;;;8.82;;
46455;SDS011;64052;47.466;9.094;2022-10-04T18:09:02;10.77;;;8.57;;
46455;SDS011;64052;47.466;9.094;2022-10-04T18:30:19;12.48;;;9.32;;
46455;SDS011;64052;47.466;9.094;2022-10-04T18:35:23;11.77;;;10.52;;
46455;SDS011;64052;47.466;9.094;2022-10-04T18:40:32;11.73;;;10.27;;
46455;SDS011;64052;47.466;9.094;2022-10-04T18:45:41;11.10;;;8.93;;
46455;SDS011;64052;47.466;9.094;2022-10-04T18:51:23;10.13;;;7.72;;
46455;SDS011;64052;47.466;9.094;2022-10-04T18:56:33;9.23;;;7.60;;
46455;SDS011;64052;47.466;9.094;2022-10-04T19:23:34;12.15;;;9.18;;
46455;SDS011;64052;47.466;9.094;2022-10-04T19:28:41;8.57;;;6.53;;
46455;SDS011;64052;47.466;9.094;2022-10-04T19:49:56;9.55;;;8.65;;
46455;SDS011;64052;47.466;9.094;2022-10-04T19:55:38;7.90;;;7.10;;
46455;SDS011;64052;47.466;9.094;2022-10-04T20:00:49;8.65;;;7.35;;
46455;SDS011;64052;47.466;9.094;2022-10-04T20:05:52;7.50;;;6.07;;
46455;SDS011;64052;47.466;9.094;2022-10-04T20:11:09;6.00;;;5.40;;
46455;SDS011;64052;47.466;9.094;2022-10-04T20:16:14;4.40;;;4.00;;
46455;SDS011;64052;47.466;9.094;2022-10-04T20:42:44;3.08;;;2.75;;
46455;SDS011;64052;47.466;9.094;2022-10-04T20:48:17;3.40;;;3.00;;
46455;SDS011;64052;47.466;9.094;2022-10-04T20:53:21;7.00;;;2.67;;
46455;SDS011;64052;47.466;9.094;2022-10-04T20:58:29;4.00;;;2.50;;
46455;SDS011;64052;47.466;9.094;2022-10-04T21:03:33;3.35;;;2.38;;
46455;SDS011;64052;47.466;9.094;2022-10-04T21:08:35;3.85;;;3.40;;
46455;SDS011;64052;47.466;9.094;2022-10-04T21:13:56;3.80;;;3.38;;
46455;SDS011;64052;47.466;9.094;2022-10-04T21:24:34;5.28;;;2.65;;
46455;SDS011;64052;47.466;9.094;2022-10-04T21:29:48;4.78;;;3.30;;
46455;SDS011;64052;47.466;9.094;2022-10-04T21:34:49;3.92;;;3.53;;
46455;SDS011;64052;47.466;9.094;2022-10-04T21:39:54;4.03;;;3.70;;
46455;SDS011;64052;47.466;9.094;2022-10-04T21:44:56;3.80;;;3.38;;
46455;SDS011;64052;47.466;9.094;2022-10-04T21:49:57;5.47;;;3.53;;
46455;SDS011;64052;47.466;9.094;2022-10-04T21:54:59;4.75;;;3.50;;
46455;SDS011;64052;47.466;9.094;2022-10-04T22:00:00;3.70;;;3.38;;
46455;SDS011;64052;47.466;9.094;2022-10-04T22:05:12;4.63;;;3.75;;
46455;SDS011;64052;47.466;9.094;2022-10-04T22:10:13;2.53;;;2.33;;
46455;SDS011;64052;47.466;9.094;2022-10-04T22:15:15;4.13;;;3.17;;
46455;SDS011;64052;47.466;9.094;2022-10-04T22:20:17;3.13;;;2.58;;
46455;SDS011;64052;47.466;9.094;2022-10-04T22:25:19;2.88;;;2.17;;
46455;SDS011;64052;47.466;9.094;2022-10-04T22:30:27;3.10;;;2.30;;
46455;SDS011;64052;47.466;9.094;2022-10-04T22:35:29;2.70;;;2.50;;
46455;SDS011;64052;47.466;9.094;2022-10-04T22:40:31;3.53;;;2.70;;
46455;SDS011;64052;47.466;9.094;2022-10-04T22:45:33;3.25;;;2.95;;
46455;SDS011;64052;47.466;9.094;2022-10-04T22:50:35;2.78;;;2.00;;
46455;SDS011;64052;47.466;9.094;2022-10-04T22:55:38;4.15;;;3.00;;
46455;SDS011;64052;47.466;9.094;2022-10-04T23:00:40;3.10;;;2.50;;
46455;SDS011;64052;47.466;9.094;2022-10-04T23:05:43;3.08;;;2.53;;
46455;SDS011;64052;47.466;9.094;2022-10-04T23:10:44;3.10;;;2.80;;
46455;SDS011;64052;47.466;9.094;2022-10-04T23:15:46;3.28;;;2.97;;
46455;SDS011;64052;47.466;9.094;2022-10-04T23:20:55;5.35;;;4.13;;
46455;SDS011;64052;47.466;9.094;2022-10-04T23:25:59;4.10;;;3.05;;
46455;SDS011;64052;47.466;9.094;2022-10-04T23:31:01;3.33;;;2.50;;
46455;SDS011;64052;47.466;9.094;2022-10-04T23:36:11;2.33;;;2.13;;
46455;SDS011;64052;47.466;9.094;2022-10-04T23:41:15;8.15;;;5.40;;
46455;SDS011;64052;47.466;9.094;2022-10-04T23:46:20;4.65;;;2.05;;
46455;SDS011;64052;47.466;9.094;2022-10-04T23:51:23;2.67;;;2.42;;
46455;SDS011;64052;47.466;9.094;2022-10-04T23:56:26;3.60;;;2.50;;
